SBVT/VIX METAR and TAF weather

Enter ICAO airport designator
Station Type Date Time Source
SBVT METAR 2019/06/27 04:00 UTC NOAA

SBVT 270400Z 35006KT CAVOK 25/21 Q1018


Station Type Date Time Source
SBVT Decoded METAR 2019/06/27 04:00 UTC NOAA

Vitoria Aeroporto , Brazil (SBVT) 20-16S 040-17W 4M
Jun 27, 2019 - 12:00 AM EDT / 2019.06.27 0400 UTC
Wind: from the N (350 degrees) at 7 MPH (6 KT):0
Visibility: greater than 7 mile(s):0
Temperature: 77 F (25 C)
Dew Point: 69 F (21 C)
Relative Humidity: 78%
Pressure (altimeter): 30.06 in. Hg (1018 hPa)
ob: SBVT 270400Z 35006KT CAVOK 25/21 Q1018
cycle: 4

Station Type Date Time Source
SBVT TAF 2019/06/27 00:00 UTC NOAA

TAF SBVT 262200Z 2700/2712 04009KT 9999 FEW025 TN20/2705Z TX22/2712Z
BECMG 2701/2703 33005KT SCT030
RMK PCQ

Example: see airport list